createdAt,value
2023-01-25T00:01:49.758Z,1.80
2023-01-25T00:04:18.111Z,1.70
2023-01-25T00:06:46.007Z,1.60
2023-01-25T00:09:14.627Z,1.60
2023-01-25T00:11:44.205Z,1.60
2023-01-25T00:14:13.010Z,1.60
2023-01-25T00:16:41.994Z,1.60
2023-01-25T00:19:12.713Z,1.50
2023-01-25T00:21:41.303Z,1.60
2023-01-25T00:24:11.693Z,1.60
2023-01-25T00:26:40.106Z,1.60
2023-01-25T00:29:14.231Z,1.60
2023-01-25T00:31:55.149Z,1.60
2023-01-25T00:34:47.022Z,1.60
2023-01-25T00:37:31.010Z,1.60
2023-01-25T00:39:59.019Z,1.50
2023-01-25T00:42:27.010Z,1.50
2023-01-25T00:44:55.004Z,1.50
2023-01-25T00:47:23.244Z,1.50
2023-01-25T00:49:52.520Z,1.50
2023-01-25T00:52:22.141Z,1.50
2023-01-25T00:54:50.503Z,1.50
2023-01-25T00:57:18.553Z,1.50
2023-01-25T00:59:47.495Z,1.50
2023-01-25T01:02:16.256Z,1.50
2023-01-25T01:04:44.272Z,1.50
2023-01-25T01:07:15.853Z,1.50
2023-01-25T01:09:43.921Z,1.50
2023-01-25T01:12:11.938Z,1.50
2023-01-25T01:14:40.170Z,1.50
2023-01-25T01:17:08.152Z,1.40
2023-01-25T01:19:36.239Z,1.50
2023-01-25T01:22:04.226Z,1.50
2023-01-25T01:24:33.789Z,1.50
2023-01-25T01:27:01.799Z,1.40
2023-01-25T01:29:30.019Z,1.40
2023-01-25T01:31:58.171Z,1.40
2023-01-25T01:34:27.601Z,1.40
2023-01-25T01:36:56.414Z,1.40
2023-01-25T01:39:25.154Z,1.40
2023-01-25T01:41:55.399Z,1.40
2023-01-25T01:44:48.992Z,1.40
2023-01-25T01:47:23.845Z,1.50
2023-01-25T01:50:02.584Z,1.40
2023-01-25T01:52:38.102Z,1.40
2023-01-25T01:55:13.207Z,1.40
2023-01-25T01:57:49.663Z,1.40
2023-01-25T02:00:24.645Z,1.40
2023-01-25T02:02:53.591Z,1.50
2023-01-25T02:05:31.825Z,1.50
2023-01-25T02:08:03.364Z,1.40
2023-01-25T02:10:34.374Z,1.40
2023-01-25T02:13:02.711Z,1.40
2023-01-25T02:15:40.226Z,1.30
2023-01-25T02:18:09.733Z,1.30
2023-01-25T02:20:43.029Z,1.30
2023-01-25T02:23:22.109Z,1.30
2023-01-25T02:25:52.060Z,1.30
2023-01-25T02:28:29.092Z,1.40
2023-01-25T02:31:00.413Z,1.40
2023-01-25T02:33:29.256Z,1.40
2023-01-25T02:36:17.722Z,1.40
2023-01-25T02:38:53.740Z,1.40
2023-01-25T02:41:31.094Z,1.40
2023-01-25T02:44:00.075Z,1.40
2023-01-25T02:46:34.995Z,1.40
2023-01-25T02:49:06.211Z,1.30
2023-01-25T02:51:37.435Z,1.40
2023-01-25T02:54:10.700Z,1.40
2023-01-25T02:56:41.615Z,1.30
2023-01-25T02:59:13.207Z,1.30
2023-01-25T03:01:45.390Z,1.10
2023-01-25T03:04:17.068Z,1.20
2023-01-25T03:06:46.174Z,1.20
2023-01-25T03:09:15.767Z,1.20
2023-01-25T03:11:48.877Z,1.20
2023-01-25T03:14:18.434Z,1.20
2023-01-25T03:16:46.394Z,1.20
2023-01-25T03:19:15.798Z,1.30
2023-01-25T03:21:46.802Z,1.30
2023-01-25T03:24:15.796Z,1.30
2023-01-25T03:27:06.913Z,1.30
2023-01-25T03:29:40.840Z,1.30
2023-01-25T03:32:13.750Z,1.30
2023-01-25T03:34:42.283Z,1.20
2023-01-25T03:37:11.285Z,1.30
2023-01-25T03:39:41.121Z,1.20
2023-01-25T03:42:11.400Z,1.20
2023-01-25T03:44:58.269Z,1.30
2023-01-25T03:47:26.988Z,1.20
2023-01-25T03:49:55.482Z,1.20
2023-01-25T03:52:25.516Z,1.20
2023-01-25T03:54:53.769Z,1.10
2023-01-25T03:57:23.529Z,1.20
2023-01-25T03:59:56.787Z,1.20
2023-01-25T04:02:25.059Z,1.10
2023-01-25T04:04:54.396Z,1.10
2023-01-25T04:07:23.177Z,1.10
2023-01-25T04:09:51.473Z,1.10
2023-01-25T04:12:20.089Z,1.20
2023-01-25T04:14:49.831Z,1.20
2023-01-25T04:17:22.440Z,1.20
2023-01-25T04:19:56.020Z,1.20
2023-01-25T04:22:28.135Z,1.20
2023-01-25T04:24:57.721Z,1.20
2023-01-25T04:27:25.904Z,1.20
2023-01-25T04:30:14.577Z,1.20
2023-01-25T04:32:44.809Z,1.20
2023-01-25T04:35:23.866Z,1.20
2023-01-25T04:37:56.277Z,1.20
2023-01-25T04:40:27.693Z,1.20
2023-01-25T04:42:56.721Z,1.10
2023-01-25T04:45:26.876Z,1.10
2023-01-25T04:48:00.878Z,1.10
2023-01-25T04:50:50.029Z,1.10
2023-01-25T04:53:22.497Z,1.20
2023-01-25T04:55:50.963Z,1.20
2023-01-25T04:58:19.526Z,1.10
2023-01-25T05:00:48.989Z,1.10
2023-01-25T05:03:17.345Z,1.20
2023-01-25T05:05:48.351Z,1.10
2023-01-25T05:08:21.262Z,1.20
2023-01-25T05:10:49.558Z,1.20
2023-01-25T05:13:38.643Z,1.20
2023-01-25T05:16:14.665Z,1.20
2023-01-25T05:18:48.969Z,1.20
2023-01-25T05:21:39.363Z,1.20
2023-01-25T05:24:08.529Z,1.10
2023-01-25T05:26:54.675Z,1.20
2023-01-25T05:29:29.156Z,1.20
2023-01-25T05:32:20.836Z,1.10
2023-01-25T05:34:51.377Z,1.20
2023-01-25T05:37:23.547Z,1.20
2023-01-25T05:39:58.930Z,1.20
2023-01-25T05:42:27.274Z,1.10
2023-01-25T05:44:55.556Z,1.10
2023-01-25T05:47:25.976Z,1.10
2023-01-25T05:49:56.728Z,1.20
2023-01-25T05:52:48.682Z,1.10
2023-01-25T05:55:18.031Z,1.10
2023-01-25T05:57:46.358Z,1.10
2023-01-25T06:00:15.582Z,1.10
2023-01-25T06:02:45.010Z,1.10
2023-01-25T06:05:17.839Z,1.10
2023-01-25T06:07:45.846Z,1.10
2023-01-25T06:10:16.410Z,1.10
2023-01-25T06:12:46.004Z,1.10
2023-01-25T06:15:13.936Z,1.10
2023-01-25T06:17:43.834Z,1.20
2023-01-25T06:20:19.941Z,1.20
2023-01-25T06:23:06.596Z,1.20
2023-01-25T06:25:34.558Z,1.20
2023-01-25T06:28:02.536Z,1.20
2023-01-25T06:30:30.495Z,1.20
2023-01-25T06:33:01.187Z,1.20
2023-01-25T06:35:30.026Z,1.10
2023-01-25T06:37:58.562Z,1.10
2023-01-25T06:40:28.599Z,1.20
2023-01-25T06:42:56.905Z,1.20
2023-01-25T06:45:24.826Z,1.20
2023-01-25T06:47:52.726Z,1.20
2023-01-25T06:50:22.163Z,1.20
2023-01-25T06:52:54.083Z,1.30
2023-01-25T06:55:22.369Z,1.20
2023-01-25T06:57:50.754Z,1.20
2023-01-25T07:00:20.051Z,1.20
2023-01-25T07:02:48.083Z,1.20
2023-01-25T07:05:16.155Z,1.20
2023-01-25T07:07:47.941Z,1.20
2023-01-25T07:10:16.433Z,1.20
2023-01-25T07:12:44.479Z,1.30
2023-01-25T07:15:12.701Z,1.30
2023-01-25T07:17:40.611Z,1.30
2023-01-25T07:20:10.434Z,1.20
2023-01-25T07:22:38.409Z,1.30
2023-01-25T07:25:09.210Z,1.20
2023-01-25T07:27:37.217Z,1.30
2023-01-25T07:30:06.608Z,1.20
2023-01-25T07:32:34.540Z,1.20
2023-01-25T07:35:02.464Z,1.30
2023-01-25T07:37:30.396Z,1.30
2023-01-25T07:39:58.432Z,1.30
2023-01-25T07:42:27.708Z,1.30
2023-01-25T07:45:12.702Z,1.30
2023-01-25T07:47:41.178Z,1.30
2023-01-25T07:50:11.565Z,1.30
2023-01-25T07:52:39.920Z,1.40
2023-01-25T07:55:09.625Z,1.40
2023-01-25T07:57:39.125Z,1.40
2023-01-25T08:00:10.531Z,1.40
2023-01-25T08:02:40.393Z,1.40
2023-01-25T08:05:09.793Z,1.40
2023-01-25T08:07:37.897Z,1.40
2023-01-25T08:10:07.693Z,1.30
2023-01-25T08:12:35.908Z,1.30
2023-01-25T08:15:06.137Z,1.30
2023-01-25T08:17:34.392Z,1.40
2023-01-25T08:20:02.747Z,1.30
2023-01-25T08:22:30.764Z,1.40
2023-01-25T08:25:01.092Z,1.40
2023-01-25T08:27:29.343Z,1.40
2023-01-25T08:29:57.272Z,1.40
2023-01-25T08:32:26.551Z,1.50
2023-01-25T08:34:54.502Z,1.50
2023-01-25T08:37:22.393Z,1.60
2023-01-25T08:39:50.309Z,1.50
2023-01-25T08:42:18.233Z,1.50
2023-01-25T08:44:46.128Z,1.60
2023-01-25T08:47:14.037Z,1.60
2023-01-25T08:49:43.323Z,1.60
2023-01-25T08:52:14.871Z,1.60
2023-01-25T08:54:44.310Z,1.60
2023-01-25T08:57:12.243Z,1.50
2023-01-25T08:59:40.195Z,1.60
2023-01-25T09:02:11.284Z,1.70
2023-01-25T09:04:39.800Z,1.60
2023-01-25T09:07:09.490Z,1.50
2023-01-25T09:09:37.465Z,1.30
2023-01-25T09:12:06.438Z,1.30
2023-01-25T09:14:34.405Z,1.30
2023-01-25T09:17:02.318Z,1.40
2023-01-25T09:19:30.427Z,1.40
2023-01-25T09:21:58.371Z,1.40
2023-01-25T09:24:27.675Z,1.40
2023-01-25T09:26:59.731Z,1.40
2023-01-25T09:29:28.473Z,1.40
2023-01-25T09:31:56.490Z,1.30
2023-01-25T09:34:33.178Z,1.30
2023-01-25T09:37:01.118Z,1.40
2023-01-25T09:39:30.359Z,1.40
2023-01-25T09:42:47.975Z,1.50
2023-01-25T09:45:31.679Z,1.50
2023-01-25T09:48:10.778Z,1.50
2023-01-25T09:50:45.793Z,1.50
2023-01-25T09:53:35.721Z,1.50
2023-01-25T09:56:14.380Z,1.50
2023-01-25T09:58:47.672Z,1.50
2023-01-25T10:01:42.758Z,1.40
2023-01-25T10:04:19.019Z,1.50
2023-01-25T10:07:00.274Z,1.50
2023-01-25T10:09:41.537Z,1.50
2023-01-25T10:12:20.244Z,1.50
2023-01-25T10:14:49.526Z,1.50
2023-01-25T10:17:32.143Z,1.50
2023-01-25T10:20:25.903Z,1.60
2023-01-25T10:23:08.613Z,1.60
2023-01-25T10:25:44.268Z,1.60
2023-01-25T10:28:36.873Z,1.60
2023-01-25T10:31:08.423Z,1.60
2023-01-25T10:33:44.123Z,1.60
2023-01-25T10:36:16.783Z,1.60
2023-01-25T10:38:47.282Z,1.50
2023-01-25T10:41:24.136Z,1.50
2023-01-25T10:44:17.010Z,1.50
2023-01-25T10:46:53.611Z,1.50
2023-01-25T10:49:30.085Z,1.50
2023-01-25T10:51:58.207Z,1.50
2023-01-25T10:54:26.818Z,1.60
2023-01-25T10:56:55.925Z,1.60
2023-01-25T10:59:29.377Z,1.60
2023-01-25T11:02:02.469Z,1.60
2023-01-25T11:04:36.060Z,1.60
2023-01-25T11:07:06.441Z,1.50
2023-01-25T11:09:38.720Z,1.60
2023-01-25T11:12:19.418Z,1.60
2023-01-25T11:14:50.890Z,1.60
2023-01-25T11:17:26.908Z,1.70
2023-01-25T11:20:19.424Z,1.70
2023-01-25T11:22:52.973Z,1.60
2023-01-25T11:25:30.486Z,1.60
2023-01-25T11:28:17.220Z,1.60
2023-01-25T11:30:47.572Z,1.60
2023-01-25T11:33:18.791Z,1.60
2023-01-25T11:36:10.319Z,1.60
2023-01-25T11:38:41.696Z,1.60
2023-01-25T11:41:22.730Z,1.50
2023-01-25T11:44:14.511Z,1.50
2023-01-25T11:46:59.459Z,1.50
2023-01-25T11:49:46.836Z,1.60
2023-01-25T11:52:32.751Z,1.60
2023-01-25T11:55:23.332Z,1.60
2023-01-25T11:58:07.549Z,1.60
2023-01-25T12:00:54.577Z,1.60
2023-01-25T12:04:15.176Z,1.60
2023-01-25T12:06:59.741Z,1.70
2023-01-25T12:09:44.082Z,1.70
2023-01-25T12:12:25.650Z,1.60
2023-01-25T12:15:09.844Z,1.60
2023-01-25T12:18:12.804Z,1.60
2023-01-25T12:21:08.563Z,1.70
2023-01-25T12:23:53.649Z,1.70
2023-01-25T12:26:29.713Z,1.70
2023-01-25T12:29:06.596Z,1.70
2023-01-25T12:31:44.824Z,1.70
2023-01-25T12:34:23.628Z,1.70
2023-01-25T12:36:52.985Z,1.70
2023-01-25T12:39:25.511Z,1.70
2023-01-25T12:42:02.481Z,1.70
2023-01-25T12:44:38.140Z,1.70
2023-01-25T12:47:15.321Z,1.70
2023-01-25T12:49:52.739Z,1.70
2023-01-25T12:52:28.765Z,1.60
2023-01-25T12:55:01.814Z,1.60
2023-01-25T12:57:38.806Z,1.60
2023-01-25T13:00:21.363Z,1.60
2023-01-25T13:03:08.827Z,1.60
2023-01-25T13:05:45.414Z,1.60
2023-01-25T13:08:32.547Z,1.60
2023-01-25T13:11:16.917Z,1.60
2023-01-25T13:13:45.035Z,1.60
2023-01-25T13:16:43.148Z,1.60
2023-01-25T13:19:42.739Z,1.60
2023-01-25T13:22:13.108Z,1.60
2023-01-25T13:25:19.836Z,1.60
2023-01-25T13:27:48.735Z,1.50
2023-01-25T13:30:32.733Z,1.50
2023-01-25T13:33:05.713Z,1.50
2023-01-25T13:35:37.359Z,1.60
2023-01-25T13:38:27.451Z,1.60
2023-01-25T13:41:18.272Z,1.60
2023-01-25T13:44:09.448Z,1.60
2023-01-25T13:46:37.955Z,1.70
2023-01-25T13:49:15.702Z,1.70
2023-01-25T13:51:44.428Z,1.60
2023-01-25T13:54:18.010Z,1.70
2023-01-25T13:56:47.503Z,1.60
2023-01-25T13:59:29.001Z,1.50
2023-01-25T14:01:59.087Z,1.60
2023-01-25T14:04:28.622Z,1.60
2023-01-25T14:07:00.342Z,1.70
2023-01-25T14:09:28.809Z,1.60
2023-01-25T14:12:01.563Z,1.60
2023-01-25T14:14:33.047Z,1.60
2023-01-25T14:17:18.942Z,1.60
2023-01-25T14:19:50.602Z,1.60
2023-01-25T14:22:26.315Z,1.60
2023-01-25T14:25:13.576Z,1.60
2023-01-25T14:27:49.483Z,1.60
2023-01-25T14:30:21.836Z,1.60
2023-01-25T14:32:52.368Z,1.50
2023-01-25T14:35:42.987Z,1.50
2023-01-25T14:38:43.182Z,1.50
2023-01-25T14:41:16.952Z,1.60
2023-01-25T14:43:50.061Z,1.60
2023-01-25T14:46:24.504Z,1.60
2023-01-25T14:49:06.736Z,1.60
2023-01-25T14:51:42.085Z,1.60
2023-01-25T14:54:18.901Z,1.60
2023-01-25T14:56:49.832Z,1.60
2023-01-25T14:59:37.881Z,1.60
2023-01-25T15:02:23.953Z,1.60
2023-01-25T15:05:11.137Z,1.50
2023-01-25T15:07:47.794Z,1.50
2023-01-25T15:10:20.912Z,1.50
2023-01-25T15:13:07.613Z,1.50
2023-01-25T15:15:56.501Z,1.40
2023-01-25T15:18:44.864Z,1.40
2023-01-25T15:21:15.481Z,1.30
2023-01-25T15:23:45.849Z,1.30
2023-01-25T15:26:22.373Z,1.30
2023-01-25T15:28:52.055Z,1.30
2023-01-25T15:31:25.942Z,1.30
2023-01-25T15:33:54.323Z,1.30
2023-01-25T15:36:22.644Z,1.30
2023-01-25T15:38:50.913Z,1.30
2023-01-25T15:41:19.391Z,1.30
2023-01-25T15:43:48.426Z,1.20
2023-01-25T15:46:20.189Z,1.20
2023-01-25T15:48:51.852Z,1.30
2023-01-25T15:51:21.283Z,1.20
2023-01-25T15:53:49.409Z,1.30
2023-01-25T15:56:20.398Z,1.20
2023-01-25T15:58:52.667Z,1.20
2023-01-25T16:01:21.914Z,1.20
2023-01-25T16:03:52.422Z,1.30
2023-01-25T16:06:39.977Z,1.30
2023-01-25T16:09:18.525Z,1.30
2023-01-25T16:11:47.295Z,1.30
2023-01-25T16:14:15.371Z,1.30
2023-01-25T16:16:49.085Z,1.30
2023-01-25T16:19:21.344Z,1.40
2023-01-25T16:21:50.503Z,1.30
2023-01-25T16:24:18.943Z,1.20
2023-01-25T16:26:52.990Z,1.20
2023-01-25T16:29:22.828Z,1.30
2023-01-25T16:31:51.349Z,1.20
2023-01-25T16:34:21.941Z,1.20
2023-01-25T16:36:51.140Z,1.20
2023-01-25T16:39:21.807Z,1.20
2023-01-25T16:41:50.514Z,1.10
2023-01-25T16:44:19.263Z,1.10
2023-01-25T16:46:48.967Z,1.20
2023-01-25T16:49:21.913Z,1.20
2023-01-25T16:51:50.594Z,1.10
2023-01-25T16:54:20.466Z,1.10
2023-01-25T16:56:50.234Z,1.10
2023-01-25T16:59:19.417Z,1.10
2023-01-25T17:01:47.759Z,1.10
2023-01-25T17:04:16.308Z,1.10
2023-01-25T17:06:49.868Z,1.10
2023-01-25T17:09:25.512Z,1.10
2023-01-25T17:11:54.130Z,1.10
2023-01-25T17:14:23.877Z,1.20
2023-01-25T17:16:53.615Z,1.10
2023-01-25T17:19:22.010Z,1.20
2023-01-25T17:21:51.306Z,1.10
2023-01-25T17:24:22.415Z,1.10
2023-01-25T17:26:50.796Z,1.20
2023-01-25T17:29:19.152Z,1.20
2023-01-25T17:31:47.081Z,1.20
2023-01-25T17:34:19.040Z,1.00
2023-01-25T17:36:47.649Z,1.10
2023-01-25T17:39:20.063Z,1.00
2023-01-25T17:41:50.696Z,1.10
2023-01-25T17:44:21.484Z,1.00
2023-01-25T17:46:50.988Z,1.00
2023-01-25T17:49:22.510Z,1.00
2023-01-25T17:51:50.564Z,1.10
2023-01-25T17:54:19.812Z,1.10
2023-01-25T17:56:47.818Z,1.10
2023-01-25T17:59:15.781Z,1.00
2023-01-25T18:01:43.890Z,1.00
2023-01-25T18:04:13.228Z,1.10
2023-01-25T18:06:41.430Z,1.00
2023-01-25T18:09:09.826Z,1.10
2023-01-25T18:11:41.063Z,1.10
2023-01-25T18:14:12.995Z,1.10
2023-01-25T18:16:42.330Z,1.10
2023-01-25T18:19:11.042Z,1.10
2023-01-25T18:21:41.872Z,1.00
2023-01-25T18:24:27.777Z,0.90
2023-01-25T18:27:06.650Z,0.80
2023-01-25T18:29:48.351Z,0.80
2023-01-25T18:32:16.988Z,0.80
2023-01-25T18:34:46.278Z,0.80
2023-01-25T18:37:19.219Z,0.80
2023-01-25T18:39:48.433Z,0.80
2023-01-25T18:42:18.370Z,0.80
2023-01-25T18:44:48.333Z,0.80
2023-01-25T18:47:18.665Z,0.80
2023-01-25T18:49:47.309Z,0.80
2023-01-25T18:52:16.569Z,0.80
2023-01-25T18:54:45.058Z,0.90
2023-01-25T18:57:14.110Z,0.90
2023-01-25T18:59:44.517Z,0.90
2023-01-25T19:02:14.092Z,0.80
2023-01-25T19:04:42.835Z,0.80
2023-01-25T19:07:11.903Z,0.80
2023-01-25T19:09:43.422Z,0.70
2023-01-25T19:12:12.206Z,0.70
2023-01-25T19:14:40.350Z,0.70
2023-01-25T19:17:09.638Z,0.70
2023-01-25T19:19:37.657Z,0.60
2023-01-25T19:22:05.711Z,0.60
2023-01-25T19:24:33.754Z,0.60
2023-01-25T19:27:01.722Z,0.60
2023-01-25T19:29:29.732Z,0.60
2023-01-25T19:31:57.685Z,0.60
2023-01-25T19:34:27.239Z,0.60
2023-01-25T19:36:55.802Z,0.60
2023-01-25T19:39:23.785Z,0.60
2023-01-25T19:41:53.368Z,0.60
2023-01-25T19:44:21.971Z,0.60
2023-01-25T19:46:50.176Z,0.50
2023-01-25T19:49:18.421Z,0.60
2023-01-25T19:51:52.904Z,0.60
2023-01-25T19:54:21.836Z,0.60
2023-01-25T19:56:50.931Z,0.60
2023-01-25T19:59:21.679Z,0.50
2023-01-25T20:01:49.960Z,0.60
2023-01-25T20:04:20.825Z,0.60
2023-01-25T20:06:51.181Z,0.60
2023-01-25T20:09:24.813Z,0.60
2023-01-25T20:11:56.068Z,0.60
2023-01-25T20:14:24.372Z,0.60
2023-01-25T20:16:52.744Z,0.70
2023-01-25T20:19:20.949Z,0.70
2023-01-25T20:21:50.355Z,0.60
2023-01-25T20:24:18.391Z,0.70
2023-01-25T20:26:46.481Z,0.70
2023-01-25T20:29:14.812Z,0.60
2023-01-25T20:31:44.898Z,0.70
2023-01-25T20:34:15.834Z,0.70
2023-01-25T20:36:44.790Z,0.60
2023-01-25T20:39:17.497Z,0.60
2023-01-25T20:41:47.051Z,0.60
2023-01-25T20:44:18.018Z,0.50
2023-01-25T20:46:46.466Z,0.50
2023-01-25T20:49:18.027Z,0.50
2023-01-25T20:51:46.963Z,0.50
2023-01-25T20:54:18.105Z,0.50
2023-01-25T20:56:47.890Z,0.60
2023-01-25T20:59:17.590Z,0.50
2023-01-25T21:01:46.641Z,0.40
2023-01-25T21:04:14.752Z,0.30
2023-01-25T21:06:43.079Z,0.30
2023-01-25T21:09:12.647Z,0.30
2023-01-25T21:11:42.408Z,0.30
2023-01-25T21:14:10.329Z,0.30
2023-01-25T21:16:38.320Z,0.30
2023-01-25T21:19:14.088Z,0.30
2023-01-25T21:21:42.179Z,0.40
2023-01-25T21:24:12.174Z,0.40
2023-01-25T21:26:41.418Z,0.40
2023-01-25T21:29:09.463Z,0.30
2023-01-25T21:31:42.365Z,0.30
2023-01-25T21:34:11.441Z,0.30
2023-01-25T21:36:39.367Z,0.20
2023-01-25T21:39:07.750Z,0.20
2023-01-25T21:41:35.975Z,0.20
2023-01-25T21:44:23.375Z,0.20
2023-01-25T21:47:19.629Z,0.20
2023-01-25T21:49:57.926Z,0.30
2023-01-25T21:52:25.906Z,0.30
2023-01-25T21:54:53.816Z,0.30
2023-01-25T21:57:21.792Z,0.40
2023-01-25T21:59:53.782Z,0.30
2023-01-25T22:02:22.153Z,0.30
2023-01-25T22:04:50.137Z,0.30
2023-01-25T22:07:18.056Z,0.20
2023-01-25T22:09:45.981Z,0.20
2023-01-25T22:12:13.917Z,0.20
2023-01-25T22:14:42.079Z,0.20
2023-01-25T22:17:11.333Z,0.20
2023-01-25T22:19:39.385Z,0.20
2023-01-25T22:22:07.312Z,0.10
2023-01-25T22:24:35.448Z,0.20
2023-01-25T22:27:31.474Z,0.10
2023-01-25T22:29:59.470Z,0.10
2023-01-25T22:32:28.844Z,0.10
2023-01-25T22:34:56.747Z,0.00
2023-01-25T22:37:24.979Z,0.10
2023-01-25T22:39:54.235Z,0.10
2023-01-25T22:42:22.130Z,0.00
2023-01-25T22:44:50.024Z,0.00
2023-01-25T22:47:17.910Z,0.00
2023-01-25T22:49:47.126Z,0.00
2023-01-25T22:52:15.041Z,-0.10
2023-01-25T22:54:43.039Z,-0.10
2023-01-25T22:57:10.954Z,-0.10
2023-01-25T22:59:38.878Z,-0.20
2023-01-25T23:02:06.766Z,-0.20
2023-01-25T23:04:34.867Z,-0.10
2023-01-25T23:07:11.954Z,-0.10
2023-01-25T23:09:41.089Z,-0.10
2023-01-25T23:12:09.413Z,-0.10
2023-01-25T23:14:52.842Z,-0.10
2023-01-25T23:17:39.677Z,-0.10
2023-01-25T23:20:11.707Z,-0.10
2023-01-25T23:22:41.574Z,-0.10
2023-01-25T23:25:11.754Z,0.00
2023-01-25T23:27:40.160Z,-0.10
2023-01-25T23:30:10.602Z,-0.10
2023-01-25T23:32:38.726Z,0.00
2023-01-25T23:35:08.149Z,-0.10
2023-01-25T23:37:36.051Z,-0.10
2023-01-25T23:40:09.046Z,-0.10
2023-01-25T23:42:37.297Z,-0.10
2023-01-25T23:45:06.497Z,-0.10
2023-01-25T23:47:34.879Z,-0.10
2023-01-25T23:50:02.869Z,-0.10
2023-01-25T23:52:31.631Z,-0.10
2023-01-25T23:54:59.583Z,-0.10
2023-01-25T23:57:28.919Z,-0.10
2023-01-25T23:59:56.847Z,-0.10
